createdAt,value
2023-11-24T00:00:10.643Z,76.77
2023-11-24T00:02:41.629Z,80.00
2023-11-24T00:05:11.441Z,80.72
2023-11-24T00:07:40.858Z,81.02
2023-11-24T00:10:10.507Z,81.39
2023-11-24T00:12:38.976Z,81.86
2023-11-24T00:15:08.310Z,81.49
2023-11-24T00:17:39.267Z,82.74
2023-11-24T00:20:11.675Z,83.18
2023-11-24T00:22:40.165Z,83.97
2023-11-24T00:25:10.408Z,84.05
2023-11-24T00:27:38.952Z,85.03
2023-11-24T00:30:09.347Z,85.93
2023-11-24T00:32:37.799Z,85.97
2023-11-24T00:35:07.953Z,86.72
2023-11-24T00:37:37.725Z,88.98
2023-11-24T00:40:09.278Z,90.17
2023-11-24T00:42:37.781Z,90.40
2023-11-24T00:45:08.056Z,88.96
2023-11-24T00:47:36.463Z,88.63
2023-11-24T00:50:06.944Z,87.60
2023-11-24T00:52:35.359Z,87.63
2023-11-24T00:55:05.919Z,87.28
2023-11-24T00:57:34.871Z,88.43
2023-11-24T01:00:05.840Z,87.68
2023-11-24T01:02:34.663Z,86.15
2023-11-24T01:05:03.219Z,85.13
2023-11-24T01:07:31.913Z,83.58
2023-11-24T01:10:00.595Z,82.64
2023-11-24T01:12:30.630Z,81.87
2023-11-24T01:14:58.987Z,81.13
2023-11-24T01:17:27.362Z,81.85
2023-11-24T01:19:55.742Z,83.25
2023-11-24T01:22:25.889Z,84.15
2023-11-24T01:24:54.279Z,85.14
2023-11-24T01:27:22.680Z,86.34
2023-11-24T01:29:52.675Z,86.53
2023-11-24T01:32:21.111Z,86.16
2023-11-24T01:34:49.384Z,86.78
2023-11-24T01:37:17.727Z,88.46
2023-11-24T01:39:46.258Z,89.28
2023-11-24T01:42:14.780Z,89.90
2023-11-24T01:44:43.488Z,90.81
2023-11-24T01:47:13.823Z,90.65
2023-11-24T01:49:42.274Z,91.79
2023-11-24T01:52:10.861Z,92.64
2023-11-24T01:54:40.373Z,92.97
2023-11-24T01:57:09.553Z,93.05
2023-11-24T01:59:38.797Z,93.72
2023-11-24T02:02:07.670Z,94.00
2023-11-24T02:04:37.474Z,92.99
2023-11-24T02:07:06.281Z,93.04
2023-11-24T02:09:35.414Z,92.65
2023-11-24T02:12:03.755Z,92.14
2023-11-24T02:14:33.133Z,91.25
2023-11-24T02:17:01.597Z,90.57
2023-11-24T02:19:30.345Z,89.14
2023-11-24T02:22:00.086Z,88.75
2023-11-24T02:24:30.469Z,88.29
2023-11-24T02:27:00.366Z,87.32
2023-11-24T02:29:29.301Z,86.88
2023-11-24T02:31:57.653Z,86.06
2023-11-24T02:34:26.007Z,84.91
2023-11-24T02:36:54.386Z,84.56
2023-11-24T02:39:24.190Z,84.41
2023-11-24T02:41:54.219Z,83.61
2023-11-24T02:44:22.861Z,82.55
2023-11-24T02:46:51.378Z,81.88
2023-11-24T02:49:20.169Z,80.87
2023-11-24T02:51:48.822Z,79.65
2023-11-24T02:54:17.968Z,78.42
2023-11-24T02:56:46.261Z,77.14
2023-11-24T02:59:16.099Z,76.56
2023-11-24T03:01:44.506Z,76.94
2023-11-24T03:04:13.428Z,76.26
2023-11-24T03:06:43.229Z,76.21
2023-11-24T03:09:11.676Z,75.71
2023-11-24T03:11:40.289Z,76.17
2023-11-24T03:14:08.675Z,75.40
2023-11-24T03:16:38.445Z,74.88
2023-11-24T03:19:06.889Z,73.95
2023-11-24T03:21:35.284Z,72.05
2023-11-24T03:24:04.840Z,70.91
2023-11-24T03:26:33.109Z,71.39
2023-11-24T03:29:01.429Z,71.83
2023-11-24T03:31:30.053Z,72.34
2023-11-24T03:33:59.833Z,72.86
2023-11-24T03:36:28.319Z,73.11
2023-11-24T03:38:56.664Z,73.32
2023-11-24T03:41:24.960Z,74.77
2023-11-24T03:43:53.486Z,76.55
2023-11-24T03:46:22.067Z,74.55
2023-11-24T03:48:50.550Z,74.45
2023-11-24T03:51:22.056Z,75.07
2023-11-24T03:53:50.388Z,76.89
2023-11-24T03:56:19.184Z,77.54
2023-11-24T03:58:47.702Z,79.10
2023-11-24T04:01:16.585Z,80.94
2023-11-24T04:03:47.655Z,81.32
2023-11-24T04:06:16.665Z,81.32
2023-11-24T04:08:46.597Z,79.50
2023-11-24T04:11:15.476Z,78.81
2023-11-24T04:13:43.778Z,79.43
2023-11-24T04:16:12.124Z,83.07
2023-11-24T04:18:40.742Z,85.18
2023-11-24T04:21:09.863Z,86.92
2023-11-24T04:23:38.243Z,87.70
2023-11-24T04:26:08.459Z,88.11
2023-11-24T04:28:36.778Z,87.95
2023-11-24T04:31:05.393Z,88.25
2023-11-24T04:33:34.041Z,88.39
2023-11-24T04:36:02.400Z,89.24
2023-11-24T04:38:30.796Z,88.99
2023-11-24T04:40:59.161Z,88.59
2023-11-24T04:43:28.840Z,88.45
2023-11-24T04:45:57.577Z,89.09
2023-11-24T04:48:25.993Z,92.19
2023-11-24T04:50:54.559Z,93.40
2023-11-24T04:53:23.591Z,93.82
2023-11-24T04:55:51.912Z,93.97
2023-11-24T04:58:20.305Z,94.86
2023-11-24T05:00:50.028Z,95.11
2023-11-24T05:03:18.393Z,95.27
2023-11-24T05:05:46.683Z,95.40
2023-11-24T05:08:15.578Z,95.22
2023-11-24T05:10:44.088Z,94.09
2023-11-24T05:13:12.488Z,93.63
2023-11-24T05:15:40.925Z,92.37
2023-11-24T05:18:10.687Z,94.05
2023-11-24T05:20:39.561Z,93.04
2023-11-24T05:23:08.032Z,91.74
2023-11-24T05:25:36.569Z,91.14
2023-11-24T05:28:05.352Z,91.35
2023-11-24T05:30:33.762Z,91.01
2023-11-24T05:33:02.423Z,90.60
2023-11-24T05:35:32.306Z,89.94
2023-11-24T05:38:00.642Z,89.95
2023-11-24T05:40:29.562Z,88.16
2023-11-24T05:42:57.937Z,84.96
2023-11-24T05:45:26.318Z,82.02
2023-11-24T05:47:54.701Z,78.62
2023-11-24T05:50:24.161Z,77.88
2023-11-24T05:52:53.918Z,77.06
2023-11-24T05:55:22.410Z,77.23
2023-11-24T05:57:51.052Z,77.59
2023-11-24T06:00:20.233Z,77.76
2023-11-24T06:02:48.624Z,77.41
2023-11-24T06:05:17.930Z,78.66
2023-11-24T06:07:48.433Z,77.61
2023-11-24T06:10:20.130Z,78.10
2023-11-24T06:12:48.496Z,79.16
2023-11-24T06:15:16.995Z,79.37
2023-11-24T06:17:45.314Z,78.58
2023-11-24T06:20:14.036Z,77.71
2023-11-24T06:22:45.149Z,76.65
2023-11-24T06:25:16.198Z,76.80
2023-11-24T06:27:46.701Z,75.99
2023-11-24T06:30:15.467Z,75.82
2023-11-24T06:32:43.759Z,74.84
2023-11-24T06:35:12.218Z,74.78
2023-11-24T06:37:42.029Z,74.62
2023-11-24T06:40:13.164Z,74.88
2023-11-24T06:42:42.078Z,78.27
2023-11-24T06:45:14.232Z,81.82
2023-11-24T06:47:43.338Z,84.62
2023-11-24T06:50:13.424Z,86.84
2023-11-24T06:52:42.480Z,88.68
2023-11-24T06:55:12.405Z,88.85
2023-11-24T06:57:40.998Z,88.28
2023-11-24T07:00:18.576Z,88.04
2023-11-24T07:02:47.576Z,87.81
2023-11-24T07:05:16.152Z,87.40
2023-11-24T07:07:44.618Z,86.54
2023-11-24T07:10:14.835Z,86.14
2023-11-24T07:12:45.151Z,84.89
2023-11-24T07:15:15.243Z,83.33
2023-11-24T07:17:44.501Z,83.45
2023-11-24T07:20:14.054Z,84.06
2023-11-24T07:22:44.045Z,84.78
2023-11-24T07:25:15.164Z,84.06
2023-11-24T07:27:43.820Z,83.42
2023-11-24T07:30:15.447Z,83.10
2023-11-24T07:32:43.954Z,85.83
2023-11-24T07:35:15.355Z,87.63
2023-11-24T07:37:43.901Z,89.21
2023-11-24T07:40:16.012Z,89.56
2023-11-24T07:42:46.136Z,88.70
2023-11-24T07:45:16.860Z,88.21
2023-11-24T07:47:45.772Z,89.09
2023-11-24T07:50:14.195Z,88.91
2023-11-24T07:52:45.160Z,89.18
2023-11-24T07:55:15.042Z,89.91
2023-11-24T07:57:44.125Z,90.80
2023-11-24T08:00:14.839Z,90.59
2023-11-24T08:02:44.952Z,89.74
2023-11-24T08:05:13.795Z,87.91
2023-11-24T08:07:42.194Z,88.50
2023-11-24T08:10:11.616Z,88.24
2023-11-24T08:12:39.959Z,88.53
2023-11-24T08:15:10.741Z,89.73
2023-11-24T08:17:40.104Z,89.85
2023-11-24T08:20:12.394Z,90.24
2023-11-24T08:22:41.278Z,91.39
2023-11-24T08:25:11.247Z,92.91
2023-11-24T08:27:39.898Z,93.41
2023-11-24T08:30:12.842Z,92.21
2023-11-24T08:32:45.510Z,91.61
2023-11-24T08:35:16.576Z,91.10
2023-11-24T08:37:45.133Z,89.92
2023-11-24T08:40:18.032Z,87.35
2023-11-24T08:42:46.974Z,84.87
2023-11-24T08:45:17.748Z,83.82
2023-11-24T08:47:47.944Z,83.70
2023-11-24T08:50:19.314Z,82.17
2023-11-24T08:52:49.264Z,82.54
2023-11-24T08:55:18.146Z,83.22
2023-11-24T08:57:46.797Z,83.76
2023-11-24T09:00:16.550Z,82.45
2023-11-24T09:02:46.092Z,82.03
2023-11-24T09:05:14.613Z,82.03
2023-11-24T09:07:45.719Z,81.46
2023-11-24T09:10:16.113Z,80.74
2023-11-24T09:12:44.752Z,79.85
2023-11-24T09:15:13.163Z,78.01
2023-11-24T09:17:41.502Z,75.96
2023-11-24T09:20:13.342Z,74.97
2023-11-24T09:22:42.997Z,73.22
2023-11-24T09:25:13.000Z,72.49
2023-11-24T09:27:41.431Z,73.03
2023-11-24T09:30:11.943Z,72.93
2023-11-24T09:32:43.167Z,72.61
2023-11-24T09:35:12.323Z,72.89
2023-11-24T09:37:40.864Z,73.78
2023-11-24T09:40:17.382Z,74.25
2023-11-24T09:42:48.583Z,74.28
2023-11-24T09:45:20.771Z,70.29
2023-11-24T09:47:53.033Z,69.11
2023-11-24T09:50:25.960Z,67.39
2023-11-24T09:52:56.940Z,66.89
2023-11-24T09:55:30.112Z,66.26
2023-11-24T09:57:59.504Z,64.89
2023-11-24T10:00:29.236Z,64.66
2023-11-24T10:03:01.837Z,64.86
2023-11-24T10:05:31.750Z,65.50
2023-11-24T10:08:02.105Z,66.12
2023-11-24T10:10:32.169Z,64.18
2023-11-24T10:13:04.128Z,64.28
2023-11-24T10:15:33.575Z,64.24
2023-11-24T10:18:03.380Z,63.30
2023-11-24T10:20:32.730Z,63.86
2023-11-24T10:23:02.071Z,65.68
2023-11-24T10:25:35.251Z,66.96
2023-11-24T10:28:07.934Z,69.27
2023-11-24T10:30:36.436Z,73.04
2023-11-24T10:33:06.457Z,75.97
2023-11-24T10:35:34.902Z,77.18
2023-11-24T10:38:04.029Z,77.37
2023-11-24T10:40:34.834Z,76.34
2023-11-24T10:43:05.825Z,74.81
2023-11-24T10:45:36.092Z,75.14
2023-11-24T10:48:11.948Z,75.20
2023-11-24T10:50:44.177Z,74.81
2023-11-24T10:53:22.813Z,74.19
2023-11-24T10:55:55.641Z,73.74
2023-11-24T10:58:24.215Z,73.09
2023-11-24T11:00:52.940Z,73.08
2023-11-24T11:03:21.287Z,72.87
2023-11-24T11:06:05.239Z,72.87
2023-11-24T11:08:40.027Z,74.38
2023-11-24T11:11:46.178Z,74.13
2023-11-24T11:14:15.914Z,75.08
2023-11-24T11:16:46.139Z,74.47
2023-11-24T11:19:33.393Z,71.39
2023-11-24T11:22:02.753Z,68.56
2023-11-24T11:24:31.411Z,67.31
2023-11-24T11:27:01.099Z,68.92
2023-11-24T11:29:33.394Z,72.97
2023-11-24T11:32:03.592Z,74.34
2023-11-24T11:34:33.322Z,72.49
2023-11-24T11:37:08.334Z,72.01
2023-11-24T11:39:51.208Z,71.47
2023-11-24T11:42:23.386Z,71.41
2023-11-24T11:44:58.200Z,70.75
2023-11-24T11:47:28.006Z,70.03
2023-11-24T11:49:58.933Z,69.32
2023-11-24T11:52:29.876Z,69.79
2023-11-24T11:55:01.934Z,70.08
2023-11-24T11:57:31.765Z,68.83
2023-11-24T12:00:00.227Z,68.27
2023-11-24T12:02:28.830Z,68.70
2023-11-24T12:04:57.829Z,69.51
2023-11-24T12:07:27.555Z,69.97
2023-11-24T12:09:56.125Z,67.66
2023-11-24T12:12:25.272Z,66.21
2023-11-24T12:14:56.093Z,65.78
2023-11-24T12:17:25.258Z,65.84
2023-11-24T12:19:55.067Z,65.26
2023-11-24T12:22:24.646Z,64.28
2023-11-24T12:24:54.274Z,64.70
2023-11-24T12:27:23.255Z,67.08
2023-11-24T12:29:52.801Z,68.65
2023-11-24T12:32:27.824Z,69.15
2023-11-24T12:35:00.912Z,71.00
2023-11-24T12:37:30.094Z,72.61
2023-11-24T12:39:58.583Z,72.42
2023-11-24T12:42:30.486Z,70.42
2023-11-24T12:45:00.414Z,69.78
2023-11-24T12:50:07.720Z,74.09
2023-11-24T12:52:37.318Z,75.20
2023-11-24T12:55:08.642Z,75.68
2023-11-24T12:57:39.294Z,74.68
2023-11-24T13:00:14.151Z,71.31
2023-11-24T13:02:44.571Z,67.34
2023-11-24T13:05:14.737Z,68.29
2023-11-24T13:07:43.935Z,67.77
2023-11-24T13:10:13.107Z,67.85
2023-11-24T13:12:43.149Z,67.16
2023-11-24T13:15:12.186Z,66.90
2023-11-24T13:17:40.812Z,66.66
2023-11-24T13:20:13.211Z,67.78
2023-11-24T13:22:43.459Z,68.75
2023-11-24T13:25:12.827Z,70.27
2023-11-24T13:27:42.874Z,71.41
2023-11-24T13:30:13.606Z,71.35
2023-11-24T13:32:43.404Z,71.65
2023-11-24T13:35:15.468Z,71.49
2023-11-24T13:37:45.961Z,71.42
2023-11-24T13:40:14.786Z,70.47
2023-11-24T13:42:43.685Z,70.61
2023-11-24T13:45:13.509Z,71.93
2023-11-24T13:47:42.905Z,72.68
2023-11-24T13:50:14.977Z,72.37
2023-11-24T13:52:45.126Z,72.13
2023-11-24T13:55:14.794Z,73.23
2023-11-24T13:57:43.225Z,75.22
2023-11-24T14:00:13.147Z,75.81
2023-11-24T14:02:42.443Z,77.74
2023-11-24T14:05:14.299Z,78.23
2023-11-24T14:07:45.707Z,77.46
2023-11-24T14:10:19.106Z,75.57
2023-11-24T14:12:49.695Z,74.68
2023-11-24T14:15:18.395Z,75.20
2023-11-24T14:17:46.868Z,77.75
2023-11-24T14:20:17.489Z,79.82
2023-11-24T14:22:47.175Z,80.75
2023-11-24T14:25:15.913Z,81.20
2023-11-24T14:27:44.315Z,81.50
2023-11-24T14:30:14.167Z,80.30
2023-11-24T14:32:43.205Z,79.92
2023-11-24T14:35:12.781Z,81.13
2023-11-24T14:37:42.651Z,81.01
2023-11-24T14:40:20.269Z,81.44
2023-11-24T14:42:51.651Z,80.53
2023-11-24T14:45:21.889Z,79.75
2023-11-24T14:47:51.383Z,80.14
2023-11-24T14:50:26.461Z,80.14
2023-11-24T14:52:58.852Z,79.07
2023-11-24T14:55:29.828Z,79.81
2023-11-24T14:58:00.452Z,77.97
2023-11-24T15:00:34.459Z,77.09
2023-11-24T15:03:08.349Z,76.18
2023-11-24T15:05:39.637Z,76.24
2023-11-24T15:08:10.920Z,75.42
2023-11-24T15:10:42.889Z,74.81
2023-11-24T15:13:11.777Z,74.86
2023-11-24T15:15:41.168Z,75.33
2023-11-24T15:18:11.083Z,76.00
2023-11-24T15:20:41.558Z,76.65
2023-11-24T15:23:12.672Z,77.32
2023-11-24T15:25:49.362Z,79.05
2023-11-24T15:28:22.797Z,77.20
2023-11-24T15:30:53.653Z,75.40
2023-11-24T15:33:22.853Z,74.65
2023-11-24T15:35:53.090Z,74.99
2023-11-24T15:38:24.409Z,75.89
2023-11-24T15:40:53.873Z,77.15
2023-11-24T15:43:23.243Z,78.76
2023-11-24T15:45:55.180Z,78.83
2023-11-24T15:48:24.544Z,78.28
2023-11-24T15:50:53.773Z,79.35
2023-11-24T15:53:23.685Z,79.79
2023-11-24T15:55:52.781Z,81.11
2023-11-24T15:58:26.172Z,81.46
2023-11-24T16:00:57.758Z,81.64
2023-11-24T16:03:26.728Z,82.21
2023-11-24T16:05:59.104Z,82.03
2023-11-24T16:08:34.400Z,79.17
2023-11-24T16:11:11.061Z,80.15
2023-11-24T16:13:42.712Z,80.91
2023-11-24T16:16:12.097Z,82.86
2023-11-24T16:18:43.265Z,83.41
2023-11-24T16:21:11.768Z,83.80
2023-11-24T16:23:41.953Z,83.02
2023-11-24T16:26:11.241Z,82.60
2023-11-24T16:28:40.264Z,81.75
2023-11-24T16:31:09.032Z,83.06
2023-11-24T16:33:38.898Z,83.47
2023-11-24T16:36:09.599Z,84.27
2023-11-24T16:38:38.253Z,85.30
2023-11-24T16:41:08.261Z,86.17
2023-11-24T16:43:36.556Z,86.27
2023-11-24T16:46:09.301Z,86.81
2023-11-24T16:48:41.634Z,86.14
2023-11-24T16:51:09.955Z,85.33
2023-11-24T16:53:38.254Z,84.00
2023-11-24T16:56:08.511Z,81.03
2023-11-24T16:58:36.870Z,79.69
2023-11-24T17:01:05.298Z,80.12
2023-11-24T17:03:37.429Z,79.43
2023-11-24T17:06:06.354Z,79.50
2023-11-24T17:08:34.732Z,80.20
2023-11-24T17:11:07.268Z,81.38
2023-11-24T17:13:37.229Z,82.00
2023-11-24T17:16:07.487Z,82.26
2023-11-24T17:18:37.403Z,83.17
2023-11-24T17:21:06.624Z,83.50
2023-11-24T17:23:36.171Z,82.13
2023-11-24T17:26:04.548Z,82.29
2023-11-24T17:28:32.987Z,81.29
2023-11-24T17:31:05.448Z,80.09
2023-11-24T17:33:34.935Z,80.53
2023-11-24T17:36:04.633Z,83.88
2023-11-24T17:38:32.932Z,85.89
2023-11-24T17:41:02.010Z,87.75
2023-11-24T17:43:30.440Z,88.80
2023-11-24T17:45:59.033Z,89.10
2023-11-24T17:48:28.708Z,89.74
2023-11-24T17:50:57.009Z,90.44
2023-11-24T17:53:25.349Z,88.22
2023-11-24T17:55:53.683Z,85.18
2023-11-24T17:58:22.087Z,82.14
2023-11-24T18:00:51.146Z,79.50
2023-11-24T18:03:19.637Z,78.36
2023-11-24T18:05:49.554Z,78.21
2023-11-24T18:08:22.073Z,78.13
2023-11-24T18:10:50.747Z,76.03
2023-11-24T18:13:19.361Z,74.71
2023-11-24T18:15:47.898Z,74.57
2023-11-24T18:18:16.763Z,74.81
2023-11-24T18:20:46.711Z,74.22
2023-11-24T18:23:16.399Z,74.02
2023-11-24T18:25:45.108Z,73.87
2023-11-24T18:28:15.581Z,72.90
2023-11-24T18:30:44.401Z,73.00
2023-11-24T18:33:12.832Z,72.59
2023-11-24T18:35:41.150Z,72.10
2023-11-24T18:38:10.135Z,72.19
2023-11-24T18:40:40.088Z,71.30
2023-11-24T18:43:08.557Z,70.54
2023-11-24T18:45:36.876Z,69.24
2023-11-24T18:48:06.598Z,67.68
2023-11-24T18:50:34.949Z,66.63
2023-11-24T18:53:03.691Z,66.94
2023-11-24T18:55:32.252Z,66.58
2023-11-24T18:58:02.063Z,68.12
2023-11-24T19:00:30.544Z,67.85
2023-11-24T19:03:01.233Z,68.19
2023-11-24T19:05:29.580Z,67.75
2023-11-24T19:07:57.901Z,66.97
2023-11-24T19:10:26.408Z,66.36
2023-11-24T19:12:55.987Z,65.83
2023-11-24T19:15:25.728Z,66.04
2023-11-24T19:17:55.063Z,66.16
2023-11-24T19:20:23.605Z,66.50
2023-11-24T19:22:51.914Z,66.80
2023-11-24T19:25:20.472Z,65.62
2023-11-24T19:27:48.832Z,66.07
2023-11-24T19:30:17.549Z,67.47
2023-11-24T19:32:47.514Z,68.96
2023-11-24T19:35:16.041Z,69.61
2023-11-24T19:37:45.658Z,70.09
2023-11-24T19:40:15.427Z,71.30
2023-11-24T19:42:43.876Z,71.80
2023-11-24T19:45:12.475Z,70.94
2023-11-24T19:47:40.799Z,70.21
2023-11-24T19:50:11.558Z,70.44
2023-11-24T19:52:40.919Z,70.74
2023-11-24T19:55:10.114Z,70.56
2023-11-24T19:57:38.484Z,70.99
2023-11-24T20:00:09.179Z,71.25
2023-11-24T20:02:37.735Z,71.98
2023-11-24T20:05:07.739Z,77.06
2023-11-24T20:07:37.514Z,78.40
2023-11-24T20:10:07.958Z,80.04
2023-11-24T20:12:36.375Z,81.03
2023-11-24T20:15:05.457Z,81.81
2023-11-24T20:17:34.928Z,81.87
2023-11-24T20:20:04.483Z,83.45
2023-11-24T20:22:32.885Z,84.22
2023-11-24T20:25:04.559Z,85.54
2023-11-24T20:27:33.041Z,86.36
2023-11-24T20:30:01.554Z,85.49
2023-11-24T20:32:29.923Z,85.55
2023-11-24T20:34:58.840Z,86.44
2023-11-24T20:37:27.466Z,86.13
2023-11-24T20:39:57.198Z,85.10
2023-11-24T20:42:27.171Z,85.30
2023-11-24T20:44:55.504Z,84.97
2023-11-24T20:47:23.810Z,84.13
2023-11-24T20:49:52.558Z,82.54
2023-11-24T20:52:21.500Z,81.75
2023-11-24T20:54:51.158Z,81.12
2023-11-24T20:57:19.482Z,80.09
2023-11-24T20:59:49.140Z,77.77
2023-11-24T21:02:18.464Z,76.81
2023-11-24T21:04:47.329Z,77.10
2023-11-24T21:07:17.260Z,76.77
2023-11-24T21:09:45.679Z,77.15
2023-11-24T21:12:14.157Z,76.77
2023-11-24T21:14:42.487Z,76.58
2023-11-24T21:17:12.178Z,76.48
2023-11-24T21:19:41.003Z,77.94
2023-11-24T21:22:09.640Z,77.99
2023-11-24T21:24:39.185Z,79.69
2023-11-24T21:27:07.673Z,80.25
2023-11-24T21:29:36.046Z,80.37
2023-11-24T21:32:05.448Z,81.27
2023-11-24T21:34:35.174Z,82.45
2023-11-24T21:37:04.274Z,83.46
2023-11-24T21:39:32.630Z,83.50
2023-11-24T21:42:00.970Z,83.87
2023-11-24T21:44:29.788Z,82.71
2023-11-24T21:46:58.335Z,82.55
2023-11-24T21:49:27.121Z,81.90
2023-11-24T21:51:56.973Z,81.36
2023-11-24T21:54:25.714Z,81.55
2023-11-24T21:56:54.276Z,81.19
2023-11-24T21:59:22.787Z,80.79
2023-11-24T22:01:51.153Z,79.56
2023-11-24T22:04:19.649Z,78.33
2023-11-24T22:06:48.622Z,77.93
2023-11-24T22:09:20.628Z,76.34
2023-11-24T22:11:49.646Z,76.84
2023-11-24T22:14:19.337Z,76.98
2023-11-24T22:16:47.703Z,78.23
2023-11-24T22:19:17.812Z,79.16
2023-11-24T22:21:47.934Z,78.52
2023-11-24T22:24:17.696Z,78.23
2023-11-24T22:26:46.476Z,79.04
2023-11-24T22:29:15.463Z,78.73
2023-11-24T22:31:43.936Z,77.37
2023-11-24T22:34:12.498Z,76.07
2023-11-24T22:36:40.923Z,75.45
2023-11-24T22:39:09.518Z,76.10
2023-11-24T22:41:39.529Z,75.56
2023-11-24T22:44:10.158Z,74.60
2023-11-24T22:46:38.504Z,74.38
2023-11-24T22:49:06.986Z,74.88
2023-11-24T22:51:35.309Z,77.92
2023-11-24T22:54:04.185Z,78.58
2023-11-24T22:56:33.217Z,78.90
2023-11-24T22:59:03.092Z,78.71
2023-11-24T23:01:31.654Z,78.17
2023-11-24T23:04:01.904Z,77.64
2023-11-24T23:06:30.509Z,77.61
2023-11-24T23:08:59.594Z,76.31
2023-11-24T23:11:30.167Z,75.16
2023-11-24T23:13:58.957Z,74.35
2023-11-24T23:16:30.372Z,74.18
2023-11-24T23:18:59.482Z,73.86
2023-11-24T23:21:27.820Z,73.36
2023-11-24T23:23:56.567Z,73.30
2023-11-24T23:26:26.351Z,73.51
2023-11-24T23:28:55.031Z,75.02
2023-11-24T23:31:25.738Z,76.66
2023-11-24T23:33:57.402Z,77.63
2023-11-24T23:36:25.861Z,79.04
2023-11-24T23:38:54.241Z,80.34
2023-11-24T23:41:22.581Z,81.38
2023-11-24T23:43:51.009Z,82.37
2023-11-24T23:46:19.508Z,82.40
2023-11-24T23:48:48.746Z,82.66
2023-11-24T23:51:18.840Z,82.37
2023-11-24T23:53:47.325Z,82.28
2023-11-24T23:56:15.807Z,82.43
2023-11-24T23:58:44.982Z,82.06
